createdAt,value
2019-04-30T00:01:30.988Z,29.70
2019-04-30T00:04:11.177Z,29.40
2019-04-30T00:06:40.808Z,27.47
2019-04-30T00:09:17.430Z,28.23
2019-04-30T00:11:46.049Z,29.57
2019-04-30T00:14:16.661Z,31.00
2019-04-30T00:16:47.014Z,28.17
2019-04-30T00:19:19.689Z,29.13
2019-04-30T00:21:57.054Z,28.17
2019-04-30T00:24:20.659Z,25.83
2019-04-30T00:26:52.556Z,27.40
2019-04-30T00:29:26.936Z,29.30
2019-04-30T00:31:59.150Z,27.87
2019-04-30T00:34:26.269Z,27.05
2019-04-30T00:36:56.707Z,27.03
2019-04-30T00:39:27.367Z,27.25
2019-04-30T00:41:57.749Z,28.43
2019-04-30T00:44:28.526Z,29.70
2019-04-30T00:47:00.659Z,25.27
2019-04-30T00:49:30.276Z,26.00
2019-04-30T00:52:00.509Z,27.53
2019-04-30T00:54:31.062Z,27.13
2019-04-30T00:57:04.441Z,26.80
2019-04-30T00:59:32.663Z,27.80
2019-04-30T01:02:29.104Z,24.90
2019-04-30T01:05:00.167Z,26.50
2019-04-30T01:07:27.177Z,28.00
2019-04-30T01:09:57.523Z,27.70
2019-04-30T01:12:31.695Z,25.17
2019-04-30T01:15:01.652Z,26.95
2019-04-30T01:17:31.197Z,27.23
2019-04-30T01:20:01.079Z,26.57
2019-04-30T01:22:32.811Z,24.80
2019-04-30T01:25:11.749Z,27.13
2019-04-30T01:27:39.517Z,26.37
2019-04-30T01:30:13.408Z,25.10
2019-04-30T01:32:40.675Z,25.00
2019-04-30T01:35:11.075Z,24.43
2019-04-30T01:37:40.731Z,27.93
2019-04-30T01:40:13.930Z,28.42
2019-04-30T01:42:48.073Z,27.43
2019-04-30T01:45:15.749Z,29.20
2019-04-30T01:47:46.107Z,27.80
2019-04-30T01:50:16.502Z,27.73
2019-04-30T01:52:52.819Z,27.03
2019-04-30T01:55:49.448Z,25.83
2019-04-30T01:58:42.176Z,25.45
2019-04-30T02:01:18.912Z,26.30
2019-04-30T02:03:48.922Z,27.37
2019-04-30T02:06:19.764Z,25.47
2019-04-30T02:08:49.567Z,26.47
2019-04-30T02:11:19.833Z,25.30
2019-04-30T02:13:50.303Z,24.77
2019-04-30T02:16:21.120Z,23.93
2019-04-30T02:18:50.877Z,24.97
2019-04-30T02:21:21.168Z,25.43
2019-04-30T02:23:51.549Z,23.33
2019-04-30T02:26:21.248Z,26.50
2019-04-30T02:28:50.842Z,25.70
2019-04-30T02:31:22.899Z,24.27
2019-04-30T02:33:56.767Z,24.93
2019-04-30T02:36:46.030Z,23.93
2019-04-30T02:39:16.374Z,23.23
2019-04-30T02:41:50.615Z,23.53
2019-04-30T02:44:21.980Z,23.50
2019-04-30T02:46:52.098Z,24.27
2019-04-30T02:49:22.917Z,24.80
2019-04-30T02:51:55.273Z,24.30
2019-04-30T02:54:29.667Z,24.07
2019-04-30T02:57:17.016Z,25.93
2019-04-30T03:00:06.672Z,27.07
2019-04-30T03:02:39.167Z,28.13
2019-04-30T03:05:12.907Z,30.17
2019-04-30T03:07:41.032Z,30.73
2019-04-30T03:10:10.828Z,30.87
2019-04-30T03:12:41.106Z,32.60
2019-04-30T03:15:10.901Z,34.43
2019-04-30T03:17:50.371Z,31.80
2019-04-30T03:20:36.409Z,32.93
2019-04-30T03:23:09.645Z,34.30
2019-04-30T03:25:40.522Z,33.87
2019-04-30T03:28:09.905Z,33.73
2019-04-30T03:30:41.965Z,33.60
2019-04-30T03:33:12.751Z,31.00
2019-04-30T03:35:47.677Z,33.90
2019-04-30T03:38:14.566Z,31.70
2019-04-30T03:40:44.246Z,30.83
2019-04-30T03:43:14.615Z,33.73
2019-04-30T03:45:44.961Z,33.07
2019-04-30T03:48:15.369Z,33.17
2019-04-30T03:50:53.305Z,30.57
2019-04-30T03:53:16.957Z,32.53
2019-04-30T03:55:50.580Z,34.43
2019-04-30T03:58:21.549Z,33.67
2019-04-30T04:01:10.171Z,31.80
2019-04-30T04:04:00.351Z,32.07
2019-04-30T04:06:36.382Z,28.97
2019-04-30T04:09:14.160Z,29.13
2019-04-30T04:11:46.135Z,28.63
2019-04-30T04:14:16.449Z,29.53
2019-04-30T04:16:46.823Z,26.90
2019-04-30T04:19:16.504Z,28.63
2019-04-30T04:21:46.105Z,28.73
2019-04-30T04:24:15.710Z,25.63
2019-04-30T04:26:45.945Z,24.53
2019-04-30T04:29:16.278Z,25.63
2019-04-30T04:31:45.966Z,25.80
2019-04-30T04:34:16.241Z,25.53
2019-04-30T04:36:46.604Z,25.50
2019-04-30T04:39:16.342Z,26.43
2019-04-30T04:41:45.950Z,24.27
2019-04-30T04:44:15.567Z,25.27
2019-04-30T04:46:45.850Z,23.03
2019-04-30T04:49:15.526Z,25.70
2019-04-30T04:51:45.771Z,25.70
2019-04-30T04:54:16.097Z,23.90
2019-04-30T04:56:45.772Z,24.93
2019-04-30T04:59:15.359Z,24.37
2019-04-30T05:01:45.657Z,24.57
2019-04-30T05:04:15.332Z,24.77
2019-04-30T05:06:45.548Z,23.90
2019-04-30T05:09:15.867Z,26.30
2019-04-30T05:11:46.236Z,25.07
2019-04-30T05:14:15.941Z,24.83
2019-04-30T05:16:46.194Z,24.87
2019-04-30T05:19:18.529Z,27.23
2019-04-30T05:21:49.558Z,29.30
2019-04-30T05:24:21.098Z,29.83
2019-04-30T05:26:51.465Z,29.87
2019-04-30T05:29:22.131Z,30.37
2019-04-30T05:31:52.514Z,31.30
2019-04-30T05:34:22.840Z,30.10
2019-04-30T05:36:53.198Z,30.90
2019-04-30T05:39:22.981Z,32.97
2019-04-30T05:41:53.271Z,34.67
2019-04-30T05:44:23.655Z,39.80
2019-04-30T05:46:53.992Z,39.83
2019-04-30T05:49:24.344Z,39.47
2019-04-30T05:51:55.939Z,39.63
2019-04-30T05:54:25.793Z,38.20
2019-04-30T05:56:56.038Z,37.80
2019-04-30T05:59:26.387Z,33.73
2019-04-30T06:01:56.048Z,31.67
2019-04-30T06:04:26.316Z,30.23
2019-04-30T06:06:56.042Z,30.17
2019-04-30T06:09:38.544Z,28.90
2019-04-30T06:12:20.039Z,27.37
2019-04-30T06:14:52.249Z,29.50
2019-04-30T06:17:22.630Z,27.83
2019-04-30T06:19:53.005Z,29.73
2019-04-30T06:22:23.217Z,30.27
2019-04-30T06:24:52.831Z,29.50
2019-04-30T06:27:22.416Z,27.70
2019-04-30T06:29:52.881Z,28.53
2019-04-30T06:32:22.561Z,28.07
2019-04-30T06:34:52.843Z,26.43
2019-04-30T06:37:23.205Z,26.03
2019-04-30T06:39:54.254Z,22.03
2019-04-30T06:42:24.080Z,22.63
2019-04-30T06:44:54.344Z,20.93
2019-04-30T06:47:32.768Z,20.33
2019-04-30T06:49:56.599Z,19.73
2019-04-30T06:52:26.299Z,18.23
2019-04-30T06:54:56.564Z,17.17
2019-04-30T06:57:26.263Z,16.33
2019-04-30T06:59:55.855Z,17.13
2019-04-30T07:02:25.543Z,15.83
2019-04-30T07:04:55.163Z,16.17
2019-04-30T07:07:36.295Z,14.80
2019-04-30T07:10:10.106Z,15.40
2019-04-30T07:12:42.275Z,15.10
2019-04-30T07:15:13.743Z,14.63
2019-04-30T07:17:43.536Z,13.63
2019-04-30T07:20:13.228Z,13.83
2019-04-30T07:22:49.810Z,12.87
2019-04-30T07:25:14.040Z,13.63
2019-04-30T07:27:44.264Z,13.17
2019-04-30T07:30:14.728Z,11.80
2019-04-30T07:32:45.074Z,11.87
2019-04-30T07:35:14.764Z,11.93
2019-04-30T07:37:45.021Z,12.17
2019-04-30T07:40:15.483Z,9.63
2019-04-30T07:42:45.200Z,7.20
2019-04-30T07:45:15.395Z,7.13
2019-04-30T07:47:45.771Z,6.60
2019-04-30T07:50:15.991Z,7.40
2019-04-30T07:52:58.922Z,7.47
2019-04-30T07:55:17.154Z,16.63
2019-04-30T07:57:50.447Z,7.83
2019-04-30T08:00:19.560Z,6.80
2019-04-30T08:02:59.958Z,8.03
2019-04-30T08:05:34.582Z,6.83
2019-04-30T08:08:20.281Z,6.97
2019-04-30T08:10:36.158Z,6.87
2019-04-30T08:13:10.110Z,7.27
2019-04-30T08:15:37.104Z,6.43
2019-04-30T08:18:08.634Z,6.77
2019-04-30T08:20:39.311Z,5.90
2019-04-30T08:23:17.365Z,6.20
2019-04-30T08:25:41.116Z,6.03
2019-04-30T08:28:11.463Z,6.17
2019-04-30T08:30:41.806Z,5.70
2019-04-30T08:33:11.553Z,5.80
2019-04-30T08:35:41.816Z,4.73
2019-04-30T08:38:11.486Z,4.93
2019-04-30T08:40:53.273Z,5.33
2019-04-30T08:43:14.039Z,5.53
2019-04-30T08:45:44.437Z,5.40
2019-04-30T08:48:14.781Z,6.03
2019-04-30T08:50:45.145Z,5.67
2019-04-30T08:53:27.399Z,5.80
2019-04-30T08:55:50.142Z,6.20
2019-04-30T08:58:20.649Z,5.97
2019-04-30T09:00:51.030Z,5.73
2019-04-30T09:03:21.991Z,5.87
2019-04-30T09:06:17.228Z,6.13
2019-04-30T09:08:50.062Z,6.17
2019-04-30T09:11:27.286Z,6.20
2019-04-30T09:13:51.773Z,5.77
2019-04-30T09:16:22.041Z,6.80
2019-04-30T09:18:52.384Z,5.57
2019-04-30T09:21:22.849Z,6.13
2019-04-30T09:23:53.140Z,6.70
2019-04-30T09:26:22.801Z,6.10
2019-04-30T09:28:53.066Z,6.83
2019-04-30T09:31:22.740Z,6.70
2019-04-30T09:33:52.342Z,6.40
2019-04-30T09:36:21.911Z,6.50
2019-04-30T09:38:52.179Z,6.70
2019-04-30T09:41:21.888Z,5.93
2019-04-30T09:43:52.124Z,6.97
2019-04-30T09:46:26.843Z,6.80
2019-04-30T09:48:54.432Z,6.67
2019-04-30T09:51:25.024Z,6.30
2019-04-30T09:53:59.367Z,5.90
2019-04-30T09:56:26.811Z,6.23
2019-04-30T09:58:59.109Z,5.70
2019-04-30T10:01:46.912Z,5.97
2019-04-30T10:04:20.422Z,5.77
2019-04-30T10:06:50.584Z,6.03
2019-04-30T10:09:20.898Z,5.77
2019-04-30T10:11:59.435Z,6.30
2019-04-30T10:14:28.573Z,5.53
2019-04-30T10:17:17.169Z,6.30
2019-04-30T10:19:49.122Z,6.30
2019-04-30T10:22:19.499Z,6.17
2019-04-30T10:24:49.516Z,6.13
2019-04-30T10:27:19.827Z,6.57
2019-04-30T10:29:50.517Z,5.77
2019-04-30T10:32:21.299Z,6.33
2019-04-30T10:35:00.150Z,6.50
2019-04-30T10:37:32.514Z,6.00
2019-04-30T10:40:02.907Z,6.67
2019-04-30T10:42:34.713Z,6.57
2019-04-30T10:45:07.033Z,6.50
2019-04-30T10:47:38.904Z,6.12
2019-04-30T10:50:10.028Z,6.20
2019-04-30T10:52:40.495Z,6.50
2019-04-30T10:55:10.963Z,6.30
2019-04-30T10:57:41.325Z,6.13
2019-04-30T11:00:15.523Z,6.83
2019-04-30T11:02:50.633Z,6.37
2019-04-30T11:05:21.147Z,7.10
2019-04-30T11:07:50.816Z,6.57
2019-04-30T11:10:21.206Z,6.30
2019-04-30T11:12:51.539Z,7.03
2019-04-30T11:15:21.897Z,7.20
2019-04-30T11:17:59.811Z,5.83
2019-04-30T11:20:30.342Z,6.70
2019-04-30T11:23:13.565Z,6.27
2019-04-30T11:25:33.414Z,5.92
2019-04-30T11:28:04.902Z,6.77
2019-04-30T11:30:35.999Z,6.57
2019-04-30T11:33:06.661Z,7.10
2019-04-30T11:35:37.096Z,6.55
2019-04-30T11:38:06.769Z,6.77
2019-04-30T11:40:39.807Z,6.43
2019-04-30T11:43:08.631Z,6.17
2019-04-30T11:46:20.004Z,6.70
2019-04-30T11:48:50.330Z,6.43
2019-04-30T11:51:20.824Z,6.47
2019-04-30T11:53:50.591Z,7.07
2019-04-30T11:56:20.206Z,7.50
2019-04-30T11:58:49.827Z,6.33
2019-04-30T12:01:22.436Z,6.13
2019-04-30T12:03:52.149Z,6.63
2019-04-30T12:06:22.418Z,6.27
2019-04-30T12:09:14.280Z,6.13
2019-04-30T12:11:44.270Z,6.33
2019-04-30T12:14:14.645Z,6.60
2019-04-30T12:16:45.007Z,6.20
2019-04-30T12:19:15.347Z,6.83
2019-04-30T12:21:45.723Z,6.10
2019-04-30T12:24:15.387Z,5.27
2019-04-30T12:26:45.628Z,5.97
2019-04-30T12:29:15.982Z,5.60
2019-04-30T12:31:46.347Z,5.93
2019-04-30T12:34:16.710Z,5.60
2019-04-30T12:36:50.411Z,5.43
2019-04-30T12:39:20.754Z,6.03
2019-04-30T12:41:50.432Z,5.57
2019-04-30T12:44:20.692Z,5.33
2019-04-30T12:46:51.021Z,5.53
2019-04-30T12:49:21.357Z,5.03
2019-04-30T12:52:06.242Z,5.67
2019-04-30T12:54:46.930Z,5.20
2019-04-30T12:57:58.156Z,5.27
2019-04-30T13:00:20.374Z,5.63
2019-04-30T13:02:50.723Z,5.60
2019-04-30T13:05:21.162Z,4.87
2019-04-30T13:07:51.391Z,5.33
2019-04-30T13:10:22.932Z,5.27
2019-04-30T13:12:53.949Z,4.93
2019-04-30T13:15:23.957Z,5.10
2019-04-30T13:17:54.220Z,4.80
2019-04-30T13:20:24.301Z,5.10
2019-04-30T13:22:54.800Z,4.80
2019-04-30T13:25:32.457Z,4.23
2019-04-30T13:28:01.646Z,5.53
2019-04-30T13:30:32.611Z,4.23
2019-04-30T13:33:14.449Z,4.40
2019-04-30T13:35:44.133Z,5.33
2019-04-30T13:38:19.606Z,4.17
2019-04-30T13:41:00.740Z,3.83
2019-04-30T13:44:05.210Z,4.27
2019-04-30T13:46:36.151Z,4.00
2019-04-30T13:49:06.801Z,3.90
2019-04-30T13:51:37.149Z,4.37
2019-04-30T13:54:07.497Z,3.87
2019-04-30T13:56:39.561Z,4.17
2019-04-30T13:59:09.158Z,4.00
2019-04-30T14:01:39.408Z,4.20
2019-04-30T14:04:28.645Z,4.03
2019-04-30T14:07:11.847Z,5.33
2019-04-30T14:09:42.196Z,3.40
2019-04-30T14:12:11.923Z,4.60
2019-04-30T14:14:42.164Z,4.43
2019-04-30T14:17:11.904Z,4.17
2019-04-30T14:19:42.145Z,3.80
2019-04-30T14:22:12.119Z,3.63
2019-04-30T14:24:42.352Z,4.23
2019-04-30T14:27:12.055Z,3.83
2019-04-30T14:29:42.287Z,3.73
2019-04-30T14:32:12.099Z,3.80
2019-04-30T14:34:42.470Z,3.60
2019-04-30T14:37:12.148Z,3.80
2019-04-30T14:39:41.922Z,3.63
2019-04-30T14:42:12.614Z,3.50
2019-04-30T14:44:44.169Z,4.10
2019-04-30T14:47:38.159Z,3.33
2019-04-30T14:50:14.218Z,3.40
2019-04-30T14:53:09.694Z,3.23
2019-04-30T14:56:08.512Z,2.93
2019-04-30T14:58:47.277Z,3.00
2019-04-30T15:01:39.359Z,3.17
2019-04-30T15:04:10.314Z,3.77
2019-04-30T15:06:40.771Z,3.03
2019-04-30T15:09:11.611Z,2.97
2019-04-30T15:11:42.025Z,2.73
2019-04-30T15:14:11.767Z,3.30
2019-04-30T15:16:41.391Z,3.30
2019-04-30T15:19:11.763Z,3.40
2019-04-30T15:21:41.476Z,3.10
2019-04-30T15:24:21.660Z,2.97
2019-04-30T15:26:57.672Z,3.00
2019-04-30T15:29:22.574Z,3.00
2019-04-30T15:31:52.192Z,2.90
2019-04-30T15:34:21.815Z,3.10
2019-04-30T15:36:52.232Z,2.57
2019-04-30T15:39:40.461Z,2.50
2019-04-30T15:42:11.414Z,3.50
2019-04-30T15:44:45.372Z,3.20
2019-04-30T15:47:12.255Z,2.80
2019-04-30T15:49:42.671Z,2.80
2019-04-30T15:52:12.375Z,3.20
2019-04-30T15:54:42.614Z,2.80
2019-04-30T15:57:12.329Z,2.77
2019-04-30T15:59:43.475Z,2.83
2019-04-30T16:02:31.043Z,2.80
2019-04-30T16:05:23.453Z,3.47
2019-04-30T16:08:03.083Z,2.73
2019-04-30T16:11:00.175Z,2.53
2019-04-30T16:13:32.289Z,2.97
2019-04-30T16:16:02.539Z,3.30
2019-04-30T16:18:42.545Z,3.03
2019-04-30T16:21:12.169Z,3.10
2019-04-30T16:23:42.446Z,3.00
2019-04-30T16:26:12.170Z,3.43
2019-04-30T16:28:42.485Z,3.20
2019-04-30T16:31:12.230Z,2.70
2019-04-30T16:33:42.687Z,2.87
2019-04-30T16:36:12.410Z,2.93
2019-04-30T16:38:42.713Z,2.93
2019-04-30T16:41:12.482Z,2.97
2019-04-30T16:43:44.118Z,3.30
2019-04-30T16:46:13.458Z,3.43
2019-04-30T16:48:43.111Z,3.27
2019-04-30T16:51:12.740Z,3.20
2019-04-30T16:53:42.449Z,3.73
2019-04-30T16:56:12.703Z,3.97
2019-04-30T16:59:00.956Z,3.47
2019-04-30T17:01:31.747Z,3.60
2019-04-30T17:04:32.457Z,3.90
2019-04-30T17:07:24.533Z,4.13
2019-04-30T17:10:22.226Z,4.23
2019-04-30T17:13:05.666Z,3.77
2019-04-30T17:15:37.035Z,4.53
2019-04-30T17:18:09.838Z,5.00
2019-04-30T17:20:38.754Z,4.30
2019-04-30T17:23:09.533Z,4.40
2019-04-30T17:25:39.322Z,5.03
2019-04-30T17:28:09.614Z,4.53
2019-04-30T17:30:40.133Z,4.93
2019-04-30T17:33:09.888Z,4.67
2019-04-30T17:35:40.231Z,4.87
2019-04-30T17:38:10.026Z,4.57
2019-04-30T17:40:40.417Z,4.90
2019-04-30T17:43:10.145Z,4.67
2019-04-30T17:45:39.737Z,4.57
2019-04-30T17:48:10.076Z,4.50
2019-04-30T17:50:40.430Z,4.50
2019-04-30T17:53:10.089Z,4.40
2019-04-30T17:55:40.486Z,4.90
2019-04-30T17:58:11.113Z,4.73
2019-04-30T18:00:44.820Z,4.90
2019-04-30T18:03:15.365Z,4.60
2019-04-30T18:05:45.718Z,4.73
2019-04-30T18:08:16.142Z,4.97
2019-04-30T18:10:46.563Z,4.93
2019-04-30T18:13:17.074Z,5.23
2019-04-30T18:15:48.362Z,5.03
2019-04-30T18:18:23.837Z,5.20
2019-04-30T18:20:59.413Z,5.47
2019-04-30T18:23:58.553Z,5.53
2019-04-30T18:26:29.042Z,5.10
2019-04-30T18:28:59.450Z,5.70
2019-04-30T18:31:29.819Z,5.40
2019-04-30T18:34:00.155Z,4.90
2019-04-30T18:36:29.865Z,5.60
2019-04-30T18:39:00.139Z,5.00
2019-04-30T18:41:29.823Z,6.07
2019-04-30T18:44:00.093Z,6.13
2019-04-30T18:46:30.499Z,6.20
2019-04-30T18:49:00.928Z,6.30
2019-04-30T18:51:38.982Z,6.13
2019-04-30T18:54:02.574Z,5.67
2019-04-30T18:56:33.599Z,5.73
2019-04-30T18:59:03.217Z,6.57
2019-04-30T19:01:32.800Z,5.40
2019-04-30T19:04:03.100Z,6.17
2019-04-30T19:06:32.797Z,6.13
2019-04-30T19:09:29.518Z,6.17
2019-04-30T19:12:11.204Z,6.30
2019-04-30T19:15:00.034Z,5.97
2019-04-30T19:18:01.151Z,6.10
2019-04-30T19:20:50.461Z,6.57
2019-04-30T19:23:20.829Z,6.70
2019-04-30T19:25:50.515Z,6.50
2019-04-30T19:28:20.815Z,7.27
2019-04-30T19:30:57.922Z,6.70
2019-04-30T19:33:22.562Z,7.20
2019-04-30T19:35:52.180Z,7.03
2019-04-30T19:38:21.791Z,6.93
2019-04-30T19:40:52.063Z,7.20
2019-04-30T19:43:22.478Z,7.50
2019-04-30T19:45:52.813Z,7.97
2019-04-30T19:48:23.199Z,7.77
2019-04-30T19:50:53.504Z,7.93
2019-04-30T19:53:23.964Z,7.60
2019-04-30T19:55:53.630Z,7.87
2019-04-30T19:58:29.558Z,7.70
2019-04-30T20:00:55.213Z,8.00
2019-04-30T20:03:25.514Z,7.73
2019-04-30T20:05:55.847Z,8.90
2019-04-30T20:08:25.515Z,8.40
2019-04-30T20:10:55.768Z,7.77
2019-04-30T20:13:33.876Z,8.23
2019-04-30T20:15:59.390Z,8.53
2019-04-30T20:18:29.927Z,8.43
2019-04-30T20:21:01.851Z,8.90
2019-04-30T20:23:32.214Z,8.43
2019-04-30T20:26:02.590Z,9.23
2019-04-30T20:28:41.575Z,8.40
2019-04-30T20:31:04.341Z,9.50
2019-04-30T20:33:34.607Z,9.60
2019-04-30T20:36:04.940Z,9.47
2019-04-30T20:38:53.619Z,9.87
2019-04-30T20:41:25.024Z,9.53
2019-04-30T20:43:56.712Z,10.07
2019-04-30T20:46:34.372Z,10.43
2019-04-30T20:48:59.308Z,9.07
2019-04-30T20:51:29.769Z,9.68
2019-04-30T20:54:00.098Z,12.83
2019-04-30T20:56:32.594Z,10.40
2019-04-30T20:59:06.404Z,9.80
2019-04-30T21:01:34.270Z,9.60
2019-04-30T21:04:04.529Z,10.97
2019-04-30T21:06:34.879Z,10.57
2019-04-30T21:09:07.006Z,11.27
2019-04-30T21:11:38.560Z,11.33
2019-04-30T21:14:08.985Z,10.70
2019-04-30T21:16:39.479Z,10.13
2019-04-30T21:19:09.835Z,10.40
2019-04-30T21:21:40.221Z,10.30
2019-04-30T21:24:10.568Z,10.00
2019-04-30T21:26:40.774Z,9.77
2019-04-30T21:29:13.941Z,10.23
2019-04-30T21:31:59.415Z,10.47
2019-04-30T21:34:51.357Z,10.27
2019-04-30T21:37:21.081Z,10.33
2019-04-30T21:39:51.458Z,10.37
2019-04-30T21:42:21.190Z,10.27
2019-04-30T21:44:51.447Z,11.73
2019-04-30T21:47:21.119Z,10.47
2019-04-30T21:49:51.401Z,11.80
2019-04-30T21:52:21.110Z,10.57
2019-04-30T21:54:50.657Z,11.13
2019-04-30T21:57:20.931Z,10.67
2019-04-30T21:59:51.321Z,10.50
2019-04-30T22:02:21.016Z,11.67
2019-04-30T22:04:51.315Z,11.47
2019-04-30T22:07:22.428Z,11.23
2019-04-30T22:09:52.797Z,11.40
2019-04-30T22:12:23.141Z,10.70
2019-04-30T22:14:53.484Z,12.03
2019-04-30T22:17:23.844Z,11.20
2019-04-30T22:19:54.209Z,12.13
2019-04-30T22:22:23.921Z,13.50
2019-04-30T22:24:54.197Z,14.07
2019-04-30T22:27:23.992Z,14.40
2019-04-30T22:29:53.638Z,14.17
2019-04-30T22:32:23.913Z,14.40
2019-04-30T22:34:56.868Z,14.30
2019-04-30T22:37:27.215Z,14.77
2019-04-30T22:40:02.737Z,14.70
2019-04-30T22:42:34.685Z,15.17
2019-04-30T22:45:09.236Z,16.23
2019-04-30T22:47:38.940Z,16.27
2019-04-30T22:50:10.195Z,15.73
2019-04-30T22:52:40.599Z,16.73
2019-04-30T22:55:11.260Z,16.57
2019-04-30T22:57:41.593Z,15.97
2019-04-30T23:00:17.048Z,15.33
2019-04-30T23:02:57.663Z,15.77
2019-04-30T23:05:28.034Z,16.20
2019-04-30T23:07:58.401Z,15.70
2019-04-30T23:10:28.873Z,15.63
2019-04-30T23:12:58.557Z,17.13
2019-04-30T23:15:28.285Z,17.57
2019-04-30T23:17:57.967Z,19.77
2019-04-30T23:20:27.574Z,20.57
2019-04-30T23:22:57.895Z,25.13
2019-04-30T23:25:27.566Z,24.70
2019-04-30T23:27:57.846Z,25.30
2019-04-30T23:30:28.239Z,25.03
2019-04-30T23:32:58.583Z,24.20
2019-04-30T23:35:28.937Z,23.20
2019-04-30T23:37:59.365Z,24.50
2019-04-30T23:40:29.842Z,23.87
2019-04-30T23:43:00.171Z,23.40
2019-04-30T23:45:29.885Z,22.27
2019-04-30T23:48:00.157Z,23.03
2019-04-30T23:50:29.899Z,23.33
2019-04-30T23:53:00.168Z,22.60
2019-04-30T23:55:29.889Z,20.10
2019-04-30T23:58:00.144Z,21.80
